createdAt,value
2018-02-23T00:01:45.130Z,43.20
2018-02-23T00:04:14.127Z,42.70
2018-02-23T00:06:43.147Z,42.80
2018-02-23T00:09:11.377Z,42.80
2018-02-23T00:11:40.379Z,43.20
2018-02-23T00:14:09.405Z,43.20
2018-02-23T00:16:37.685Z,43.20
2018-02-23T00:19:05.887Z,43.30
2018-02-23T00:21:34.238Z,43.40
2018-02-23T00:24:02.485Z,43.60
2018-02-23T00:26:31.505Z,43.90
2018-02-23T00:28:59.778Z,43.90
2018-02-23T00:31:28.008Z,43.90
2018-02-23T00:33:56.259Z,43.80
2018-02-23T00:36:24.609Z,43.80
2018-02-23T00:38:52.879Z,44.30
2018-02-23T00:41:21.157Z,44.50
2018-02-23T00:43:49.408Z,44.70
2018-02-23T00:46:18.413Z,44.80
2018-02-23T00:48:46.682Z,44.80
2018-02-23T00:51:14.905Z,45.00
2018-02-23T00:53:43.159Z,45.00
2018-02-23T00:56:12.182Z,45.30
2018-02-23T00:58:40.582Z,45.30
2018-02-23T01:01:08.902Z,45.10
2018-02-23T01:03:37.137Z,45.30
2018-02-23T01:06:05.478Z,45.30
2018-02-23T01:08:33.706Z,45.40
2018-02-23T01:11:02.728Z,46.10
2018-02-23T01:13:30.956Z,45.70
2018-02-23T01:15:59.202Z,45.90
2018-02-23T01:18:27.451Z,45.90
2018-02-23T01:20:55.679Z,46.10
2018-02-23T01:23:24.028Z,46.50
2018-02-23T01:25:52.301Z,46.50
2018-02-23T01:28:20.559Z,46.30
2018-02-23T01:30:48.811Z,46.30
2018-02-23T01:33:17.833Z,45.50
2018-02-23T01:35:46.126Z,45.50
2018-02-23T01:38:14.386Z,45.20
2018-02-23T01:40:42.660Z,45.10
2018-02-23T01:43:10.934Z,45.10
2018-02-23T01:45:39.170Z,44.90
2018-02-23T01:48:07.497Z,44.30
2018-02-23T01:50:47.797Z,44.00
2018-02-23T01:53:16.037Z,43.90
2018-02-23T01:55:44.293Z,43.70
2018-02-23T01:58:12.529Z,43.70
2018-02-23T02:00:40.862Z,43.50
2018-02-23T02:03:09.079Z,43.50
2018-02-23T02:05:37.394Z,43.40
2018-02-23T02:08:06.390Z,43.30
2018-02-23T02:10:35.402Z,43.30
2018-02-23T02:13:03.664Z,43.20
2018-02-23T02:15:31.981Z,43.30
2018-02-23T02:18:00.199Z,43.30
2018-02-23T02:20:29.212Z,43.30
2018-02-23T02:22:57.459Z,43.20
2018-02-23T02:25:25.779Z,43.50
2018-02-23T02:27:54.054Z,43.60
2018-02-23T02:30:22.296Z,43.70
2018-02-23T02:32:51.292Z,44.00
2018-02-23T02:35:20.309Z,43.90
2018-02-23T02:37:48.538Z,43.80
2018-02-23T02:40:16.787Z,43.90
2018-02-23T02:42:45.049Z,43.90
2018-02-23T02:45:13.366Z,43.90
2018-02-23T02:47:41.592Z,43.90
2018-02-23T02:50:10.481Z,44.00
2018-02-23T02:52:39.467Z,44.80
2018-02-23T02:55:08.482Z,44.40
2018-02-23T02:57:36.776Z,44.40
2018-02-23T03:00:05.809Z,44.40
2018-02-23T03:02:34.069Z,44.80
2018-02-23T03:05:02.403Z,45.00
2018-02-23T03:07:30.654Z,45.10
2018-02-23T03:09:59.673Z,45.30
2018-02-23T03:12:27.904Z,45.20
2018-02-23T03:14:56.171Z,45.50
2018-02-23T03:17:24.511Z,45.60
2018-02-23T03:19:52.830Z,45.60
2018-02-23T03:22:21.151Z,45.70
2018-02-23T03:24:49.395Z,45.90
2018-02-23T03:27:17.630Z,46.20
2018-02-23T03:29:45.890Z,46.60
2018-02-23T03:32:14.158Z,46.80
2018-02-23T03:34:42.451Z,47.10
2018-02-23T03:37:10.658Z,47.10
2018-02-23T03:39:38.885Z,47.20
2018-02-23T03:42:07.151Z,47.30
2018-02-23T03:44:36.161Z,47.60
2018-02-23T03:47:04.448Z,47.60
2018-02-23T03:49:32.681Z,47.80
2018-02-23T03:52:01.003Z,47.90
2018-02-23T03:54:29.235Z,48.00
2018-02-23T03:56:58.250Z,48.60
2018-02-23T03:59:26.558Z,48.50
2018-02-23T04:01:54.817Z,48.80
2018-02-23T04:04:23.071Z,48.90
2018-02-23T04:06:52.094Z,49.00
2018-02-23T04:09:20.329Z,49.00
2018-02-23T04:11:49.364Z,49.60
2018-02-23T04:14:17.638Z,49.50
2018-02-23T04:16:45.921Z,49.60
2018-02-23T04:19:14.177Z,49.80
2018-02-23T04:21:42.478Z,49.80
2018-02-23T04:24:10.753Z,49.70
2018-02-23T04:26:39.014Z,49.60
2018-02-23T04:29:07.301Z,49.50
2018-02-23T04:31:35.537Z,49.40
2018-02-23T04:34:04.642Z,49.50
2018-02-23T04:36:32.950Z,49.40
2018-02-23T04:39:01.198Z,49.50
2018-02-23T04:41:29.422Z,49.60
2018-02-23T04:43:57.786Z,49.70
2018-02-23T04:46:26.137Z,49.60
2018-02-23T04:48:54.365Z,49.80
2018-02-23T04:51:22.614Z,49.70
2018-02-23T04:53:50.862Z,49.90
2018-02-23T04:56:19.155Z,49.90
2018-02-23T04:58:47.383Z,49.90
2018-02-23T05:01:15.715Z,50.60
2018-02-23T05:03:43.953Z,50.00
2018-02-23T05:06:12.998Z,49.90
2018-02-23T05:08:41.256Z,49.90
2018-02-23T05:11:09.494Z,49.90
2018-02-23T05:13:38.505Z,49.30
2018-02-23T05:16:06.727Z,49.90
2018-02-23T05:18:34.986Z,49.90
2018-02-23T05:21:03.282Z,49.90
2018-02-23T05:23:31.555Z,50.80
2018-02-23T05:25:59.818Z,50.10
2018-02-23T05:28:28.087Z,50.30
2018-02-23T05:30:57.089Z,50.90
2018-02-23T05:33:25.340Z,50.30
2018-02-23T05:35:53.632Z,51.30
2018-02-23T05:38:24.876Z,50.60
2018-02-23T05:40:53.147Z,50.80
2018-02-23T05:43:21.397Z,50.80
2018-02-23T05:45:50.417Z,50.90
2018-02-23T05:48:18.666Z,50.80
2018-02-23T05:50:47.704Z,50.90
2018-02-23T05:53:15.932Z,50.80
2018-02-23T05:55:44.963Z,51.30
2018-02-23T05:58:13.249Z,50.80
2018-02-23T06:00:41.512Z,50.80
2018-02-23T06:03:09.741Z,50.70
2018-02-23T06:05:38.088Z,50.70
2018-02-23T06:08:06.317Z,51.00
2018-02-23T06:10:35.350Z,51.50
2018-02-23T06:13:03.643Z,51.50
2018-02-23T06:15:37.569Z,51.70
2018-02-23T06:18:07.902Z,52.00
2018-02-23T06:20:36.229Z,51.90
2018-02-23T06:23:04.552Z,51.90
2018-02-23T06:25:32.903Z,51.90
2018-02-23T06:28:01.231Z,52.00
2018-02-23T06:30:29.451Z,52.10
2018-02-23T06:32:57.720Z,52.00
2018-02-23T06:35:26.013Z,52.10
2018-02-23T06:37:54.444Z,51.90
2018-02-23T06:40:22.630Z,52.00
2018-02-23T06:42:50.918Z,52.10
2018-02-23T06:45:19.209Z,51.80
2018-02-23T06:47:47.445Z,51.90
2018-02-23T06:50:16.466Z,52.20
2018-02-23T06:52:44.728Z,52.00
2018-02-23T06:55:13.756Z,52.30
2018-02-23T06:57:42.115Z,52.20
2018-02-23T07:00:10.362Z,52.30
2018-02-23T07:02:38.649Z,52.40
2018-02-23T07:05:06.921Z,52.20
2018-02-23T07:07:35.943Z,52.20
2018-02-23T07:10:04.164Z,52.10
2018-02-23T07:12:32.493Z,52.00
2018-02-23T07:15:00.795Z,52.00
2018-02-23T07:17:29.075Z,52.10
2018-02-23T07:19:57.379Z,52.00
2018-02-23T07:22:25.677Z,51.80
2018-02-23T07:24:54.699Z,51.70
2018-02-23T07:27:22.947Z,51.70
2018-02-23T07:29:51.991Z,52.30
2018-02-23T07:32:20.251Z,52.30
2018-02-23T07:34:48.505Z,51.70
2018-02-23T07:37:17.515Z,51.40
2018-02-23T07:39:45.764Z,51.40
2018-02-23T07:42:14.071Z,51.40
2018-02-23T07:44:42.368Z,51.40
2018-02-23T07:47:10.723Z,51.50
2018-02-23T07:49:39.003Z,51.60
2018-02-23T07:52:07.276Z,51.70
2018-02-23T07:54:35.554Z,51.90
2018-02-23T07:57:03.834Z,52.10
2018-02-23T07:59:32.058Z,51.90
2018-02-23T08:02:00.329Z,52.10
2018-02-23T08:04:28.567Z,52.30
2018-02-23T08:06:56.834Z,52.30
2018-02-23T08:09:25.045Z,52.50
2018-02-23T08:11:53.390Z,52.30
2018-02-23T08:14:21.657Z,52.20
2018-02-23T08:16:50.762Z,52.10
2018-02-23T08:19:19.010Z,52.10
2018-02-23T08:21:47.252Z,52.10
2018-02-23T08:24:15.538Z,52.20
2018-02-23T08:26:43.805Z,52.30
2018-02-23T08:29:12.025Z,52.50
2018-02-23T08:31:41.076Z,52.20
2018-02-23T08:34:09.361Z,52.10
2018-02-23T08:36:37.628Z,52.20
2018-02-23T08:39:05.850Z,52.30
2018-02-23T08:41:34.116Z,52.50
2018-02-23T08:44:03.185Z,52.70
2018-02-23T08:46:31.394Z,52.60
2018-02-23T08:49:00.416Z,52.80
2018-02-23T08:51:28.669Z,52.80
2018-02-23T08:53:57.667Z,52.80
2018-02-23T08:56:25.938Z,52.80
2018-02-23T08:58:54.941Z,52.50
2018-02-23T09:01:23.224Z,52.40
2018-02-23T09:03:51.431Z,51.90
2018-02-23T09:06:19.756Z,51.80
2018-02-23T09:08:47.959Z,51.50
2018-02-23T09:11:16.223Z,51.60
2018-02-23T09:13:44.462Z,51.30
2018-02-23T09:16:12.729Z,50.90
2018-02-23T09:18:41.057Z,50.70
2018-02-23T09:21:09.217Z,50.40
2018-02-23T09:23:37.472Z,50.00
2018-02-23T09:26:06.480Z,49.70
2018-02-23T09:28:35.607Z,49.50
2018-02-23T09:31:03.831Z,49.40
2018-02-23T09:33:44.146Z,49.50
2018-02-23T09:36:12.413Z,49.60
2018-02-23T09:38:40.630Z,49.30
2018-02-23T09:41:08.894Z,49.30
2018-02-23T09:43:37.261Z,49.30
2018-02-23T09:46:05.491Z,48.90
2018-02-23T09:48:34.519Z,48.00
2018-02-23T09:51:02.795Z,47.90
2018-02-23T09:53:31.020Z,47.80
2018-02-23T09:55:59.268Z,47.60
2018-02-23T09:58:27.617Z,47.30
2018-02-23T10:00:55.893Z,47.20
2018-02-23T10:03:24.141Z,47.10
2018-02-23T10:05:53.174Z,46.50
2018-02-23T10:08:22.160Z,46.80
2018-02-23T10:10:50.416Z,46.80
2018-02-23T10:13:18.648Z,46.80
2018-02-23T10:15:46.918Z,46.70
2018-02-23T10:18:15.237Z,46.60
2018-02-23T10:20:44.262Z,46.50
2018-02-23T10:23:12.478Z,46.40
2018-02-23T10:28:15.359Z,46.30
2018-02-23T10:30:43.603Z,46.20
2018-02-23T10:33:11.859Z,46.20
2018-02-23T10:35:40.878Z,46.60
2018-02-23T10:38:09.130Z,45.90
2018-02-23T10:40:38.133Z,45.90
2018-02-23T10:43:07.132Z,46.10
2018-02-23T10:45:36.178Z,46.00
2018-02-23T10:48:04.406Z,46.30
2018-02-23T10:50:32.654Z,45.70
2018-02-23T10:53:00.975Z,45.30
2018-02-23T10:55:29.221Z,45.20
2018-02-23T10:57:58.218Z,45.20
2018-02-23T11:00:26.477Z,45.20
2018-02-23T11:02:54.701Z,45.20
2018-02-23T11:05:22.962Z,45.50
2018-02-23T11:07:51.214Z,45.10
2018-02-23T11:10:19.464Z,45.70
2018-02-23T11:12:47.786Z,45.70
2018-02-23T11:15:16.037Z,45.70
2018-02-23T11:17:45.065Z,45.20
2018-02-23T11:20:13.306Z,45.20
2018-02-23T11:22:41.562Z,45.30
2018-02-23T11:25:09.781Z,45.50
2018-02-23T11:27:38.073Z,45.80
2018-02-23T11:30:06.357Z,45.60
2018-02-23T11:32:34.625Z,45.30
2018-02-23T11:35:02.903Z,45.40
2018-02-23T11:37:31.145Z,45.90
2018-02-23T11:40:00.180Z,45.50
2018-02-23T11:42:28.463Z,45.50
2018-02-23T11:44:56.726Z,45.20
2018-02-23T11:47:24.972Z,45.10
2018-02-23T11:49:54.091Z,45.00
2018-02-23T11:52:22.309Z,45.00
2018-02-23T11:54:50.599Z,44.50
2018-02-23T11:57:24.579Z,44.50
2018-02-23T11:59:52.831Z,44.50
2018-02-23T12:02:21.105Z,44.20
2018-02-23T12:04:49.386Z,43.60
2018-02-23T12:07:17.635Z,43.40
2018-02-23T12:09:46.620Z,43.20
2018-02-23T12:12:15.639Z,43.70
2018-02-23T12:14:43.975Z,43.00
2018-02-23T12:17:12.202Z,43.00
2018-02-23T12:19:40.515Z,43.00
2018-02-23T12:22:08.740Z,42.90
2018-02-23T12:24:37.770Z,42.80
2018-02-23T12:27:06.011Z,42.70
2018-02-23T12:29:35.027Z,42.70
2018-02-23T12:32:03.259Z,42.60
2018-02-23T12:34:31.578Z,42.90
2018-02-23T12:36:59.901Z,42.90
2018-02-23T12:39:28.130Z,43.50
2018-02-23T12:41:56.406Z,43.40
2018-02-23T12:44:24.638Z,43.10
2018-02-23T12:46:52.986Z,43.10
2018-02-23T12:49:21.210Z,43.00
2018-02-23T12:51:50.312Z,42.20
2018-02-23T12:54:19.424Z,42.40
2018-02-23T12:56:47.662Z,42.30
2018-02-23T12:59:15.992Z,42.50
2018-02-23T13:01:44.212Z,42.10
2018-02-23T13:04:12.484Z,41.80
2018-02-23T13:06:40.709Z,42.80
2018-02-23T13:09:09.702Z,42.80
2018-02-23T13:11:38.089Z,42.70
2018-02-23T13:14:06.338Z,42.60
2018-02-23T13:16:35.331Z,42.50
2018-02-23T13:19:04.342Z,42.40
2018-02-23T13:21:32.626Z,42.40
2018-02-23T13:24:00.885Z,42.20
2018-02-23T13:26:29.203Z,42.20
2018-02-23T13:28:57.444Z,42.10
2018-02-23T13:31:25.697Z,41.80
2018-02-23T13:33:54.713Z,40.90
2018-02-23T13:36:23.013Z,40.90
2018-02-23T13:38:52.061Z,41.20
2018-02-23T13:41:25.991Z,41.20
2018-02-23T13:43:54.242Z,40.90
2018-02-23T13:46:23.283Z,41.00
2018-02-23T13:48:52.272Z,40.00
2018-02-23T13:51:20.525Z,40.00
2018-02-23T13:53:49.678Z,40.00
2018-02-23T13:56:17.910Z,39.00
2018-02-23T13:58:46.186Z,38.20
2018-02-23T14:01:15.178Z,38.00
2018-02-23T14:03:43.433Z,38.00
2018-02-23T14:06:12.447Z,38.20
2018-02-23T14:08:40.674Z,38.00
2018-02-23T14:11:09.722Z,38.00
2018-02-23T14:13:38.043Z,38.00
2018-02-23T14:16:06.321Z,38.10
2018-02-23T14:18:34.657Z,38.20
2018-02-23T14:21:02.884Z,38.50
2018-02-23T14:23:31.230Z,39.50
2018-02-23T14:25:59.609Z,39.00
2018-02-23T14:28:27.854Z,39.40
2018-02-23T14:30:56.166Z,39.70
2018-02-23T14:33:32.499Z,39.60
2018-02-23T14:36:00.937Z,39.50
2018-02-23T14:38:29.264Z,39.80
2018-02-23T14:40:57.511Z,39.80
2018-02-23T14:43:26.545Z,39.80
2018-02-23T14:45:54.964Z,39.80
2018-02-23T14:48:35.010Z,40.00
2018-02-23T14:51:09.799Z,39.90
2018-02-23T14:53:38.078Z,39.80
2018-02-23T14:56:06.322Z,39.80
2018-02-23T14:58:35.353Z,40.00
2018-02-23T15:01:03.585Z,39.90
2018-02-23T15:03:32.638Z,40.30
2018-02-23T15:06:00.855Z,39.60
2018-02-23T15:08:29.880Z,39.40
2018-02-23T15:10:58.125Z,39.40
2018-02-23T15:13:26.366Z,39.50
2018-02-23T15:15:54.636Z,39.00
2018-02-23T15:18:22.899Z,39.00
2018-02-23T15:20:51.151Z,39.40
2018-02-23T15:23:20.257Z,40.10
2018-02-23T15:25:48.558Z,40.10
2018-02-23T15:28:16.813Z,40.20
2018-02-23T15:30:57.204Z,40.30
2018-02-23T15:33:25.641Z,40.50
2018-02-23T15:35:53.892Z,40.40
2018-02-23T15:38:22.130Z,40.30
2018-02-23T15:40:50.531Z,40.10
2018-02-23T15:43:18.764Z,40.30
2018-02-23T15:45:46.994Z,40.00
2018-02-23T15:48:18.672Z,39.70
2018-02-23T15:50:50.441Z,40.00
2018-02-23T15:53:18.708Z,39.90
2018-02-23T15:55:47.718Z,39.90
2018-02-23T15:58:21.796Z,39.90
2018-02-23T16:00:49.996Z,39.70
2018-02-23T16:03:18.984Z,39.40
2018-02-23T16:05:48.003Z,39.30
2018-02-23T16:08:16.240Z,39.20
2018-02-23T16:10:45.230Z,38.90
2018-02-23T16:13:13.502Z,38.60
2018-02-23T16:15:41.744Z,38.70
2018-02-23T16:18:10.002Z,38.50
2018-02-23T16:20:38.275Z,38.20
2018-02-23T16:23:06.515Z,37.00
2018-02-23T16:25:34.785Z,36.50
2018-02-23T16:28:03.004Z,36.40
2018-02-23T16:30:31.241Z,36.30
2018-02-23T16:32:59.483Z,36.60
2018-02-23T16:35:27.754Z,36.80
2018-02-23T16:37:56.007Z,37.00
2018-02-23T16:40:24.985Z,37.80
2018-02-23T16:42:53.283Z,37.70
2018-02-23T16:45:21.519Z,38.10
2018-02-23T16:47:49.765Z,38.20
2018-02-23T16:50:18.001Z,38.40
2018-02-23T16:52:46.279Z,38.10
2018-02-23T16:55:14.529Z,38.60
2018-02-23T16:57:43.537Z,38.70
2018-02-23T17:00:12.522Z,38.50
2018-02-23T17:02:41.579Z,38.80
2018-02-23T17:05:09.906Z,38.80
2018-02-23T17:07:39.016Z,38.80
2018-02-23T17:10:07.267Z,38.90
2018-02-23T17:12:36.263Z,39.00
2018-02-23T17:15:05.279Z,39.20
2018-02-23T17:17:33.613Z,39.20
2018-02-23T17:20:01.838Z,38.90
2018-02-23T17:22:30.077Z,38.90
2018-02-23T17:24:59.095Z,39.10
2018-02-23T17:27:27.382Z,38.70
2018-02-23T17:29:55.648Z,38.80
2018-02-23T17:32:23.923Z,39.20
2018-02-23T17:34:52.153Z,39.30
2018-02-23T17:37:20.399Z,39.50
2018-02-23T17:39:48.629Z,39.60
2018-02-23T17:42:17.668Z,40.00
2018-02-23T17:44:45.895Z,39.30
2018-02-23T17:47:14.908Z,39.00
2018-02-23T17:49:44.025Z,39.30
2018-02-23T17:52:12.280Z,39.30
2018-02-23T17:54:41.270Z,39.30
2018-02-23T17:57:10.279Z,39.30
2018-02-23T17:59:38.569Z,39.30
2018-02-23T18:02:06.904Z,39.30
2018-02-23T18:04:35.142Z,39.40
2018-02-23T18:07:03.370Z,39.70
2018-02-23T18:09:32.481Z,39.80
2018-02-23T18:12:00.721Z,39.80
2018-02-23T18:14:28.963Z,39.70
2018-02-23T18:16:57.191Z,39.70
2018-02-23T18:19:26.197Z,39.40
2018-02-23T18:21:54.453Z,39.40
2018-02-23T18:24:23.492Z,39.30
2018-02-23T18:26:51.734Z,39.20
2018-02-23T18:29:19.988Z,39.20
2018-02-23T18:31:48.217Z,39.20
2018-02-23T18:34:16.469Z,39.30
2018-02-23T18:36:44.708Z,39.40
2018-02-23T18:39:12.970Z,39.40
2018-02-23T18:41:41.204Z,39.50
2018-02-23T18:44:09.492Z,39.40
2018-02-23T18:46:37.736Z,39.50
2018-02-23T18:49:06.747Z,39.90
2018-02-23T18:51:34.989Z,39.90
2018-02-23T18:54:03.212Z,40.00
2018-02-23T18:56:31.493Z,40.20
2018-02-23T18:58:59.698Z,40.30
2018-02-23T19:01:27.962Z,39.90
2018-02-23T19:03:56.985Z,40.10
2018-02-23T19:06:25.241Z,40.10
2018-02-23T19:08:53.497Z,40.40
2018-02-23T19:11:21.753Z,40.50
2018-02-23T19:13:50.001Z,40.70
2018-02-23T19:16:18.244Z,41.00
2018-02-23T19:18:46.697Z,40.90
2018-02-23T19:21:14.964Z,40.70
2018-02-23T19:23:43.239Z,41.00
2018-02-23T19:26:11.500Z,40.90
2018-02-23T19:28:40.505Z,41.80
2018-02-23T19:31:08.759Z,41.10
2018-02-23T19:33:37.781Z,41.90
2018-02-23T19:36:06.025Z,41.80
2018-02-23T19:38:35.007Z,41.90
2018-02-23T19:41:03.279Z,41.90
2018-02-23T19:43:33.122Z,42.30
2018-02-23T19:46:02.136Z,42.70
2018-02-23T19:48:30.451Z,42.60
2018-02-23T19:50:58.756Z,42.60
2018-02-23T19:53:27.783Z,42.60
2018-02-23T19:55:56.004Z,42.60
2018-02-23T19:58:25.026Z,42.90
2018-02-23T20:00:54.022Z,42.70
2018-02-23T20:03:23.040Z,42.90
2018-02-23T20:05:51.262Z,43.20
2018-02-23T20:08:19.625Z,43.10
2018-02-23T20:10:47.876Z,43.00
2018-02-23T20:13:16.156Z,42.90
2018-02-23T20:15:45.165Z,43.20
2018-02-23T20:18:13.417Z,43.40
2018-02-23T20:20:41.700Z,43.60
2018-02-23T20:23:09.933Z,43.70
2018-02-23T20:25:38.953Z,44.10
2018-02-23T20:28:07.222Z,44.10
2018-02-23T20:30:36.217Z,44.30
2018-02-23T20:33:06.071Z,44.40
2018-02-23T20:35:34.345Z,45.00
2018-02-23T20:38:02.648Z,44.60
2018-02-23T20:40:30.880Z,44.90
2018-02-23T20:42:59.372Z,45.00
2018-02-23T20:45:27.690Z,45.10
2018-02-23T20:47:57.453Z,45.10
2018-02-23T20:50:26.484Z,45.30
2018-02-23T20:52:54.715Z,45.30
2018-02-23T20:55:22.947Z,45.50
2018-02-23T20:57:51.283Z,45.70
2018-02-23T21:00:19.555Z,45.80
2018-02-23T21:02:47.827Z,45.90
2018-02-23T21:05:16.068Z,46.00
2018-02-23T21:07:45.101Z,46.10
2018-02-23T21:10:13.390Z,46.10
2018-02-23T21:12:42.359Z,45.70
2018-02-23T21:15:10.577Z,46.10
2018-02-23T21:17:38.854Z,46.20
2018-02-23T21:20:07.046Z,46.20
2018-02-23T21:22:35.534Z,46.30
2018-02-23T21:25:04.579Z,46.00
2018-02-23T21:27:32.802Z,46.40
2018-02-23T21:30:01.084Z,46.40
2018-02-23T21:32:29.308Z,46.80
2018-02-23T21:34:57.693Z,46.80
2018-02-23T21:37:25.946Z,46.70
2018-02-23T21:39:54.265Z,46.60
2018-02-23T21:42:22.509Z,46.50
2018-02-23T21:44:50.754Z,46.40
2018-02-23T21:47:19.740Z,46.80
2018-02-23T21:49:48.773Z,46.70
2018-02-23T21:52:17.003Z,46.60
2018-02-23T21:54:45.258Z,46.80
2018-02-23T21:57:13.589Z,46.70
2018-02-23T21:59:41.830Z,46.60
2018-02-23T22:02:10.145Z,46.70
2018-02-23T22:04:38.389Z,46.70
2018-02-23T22:07:06.695Z,46.90
2018-02-23T22:09:34.991Z,47.20
2018-02-23T22:12:03.363Z,47.20
2018-02-23T22:14:31.694Z,47.40
2018-02-23T22:16:59.905Z,47.60
2018-02-23T22:19:28.240Z,47.90
2018-02-23T22:21:56.496Z,47.90
2018-02-23T22:24:24.719Z,48.10
2018-02-23T22:26:53.730Z,48.60
2018-02-23T22:29:21.979Z,48.60
2018-02-23T22:31:51.005Z,48.90
2018-02-23T22:34:19.251Z,48.80
2018-02-23T22:36:48.269Z,49.00
2018-02-23T22:39:16.526Z,48.90
2018-02-23T22:41:45.542Z,48.80
2018-02-23T22:44:13.806Z,48.80
2018-02-23T22:46:42.090Z,48.70
2018-02-23T22:49:10.365Z,48.70
2018-02-23T22:51:38.751Z,48.60
2018-02-23T22:54:07.015Z,48.70
2018-02-23T22:56:36.024Z,49.10
2018-02-23T22:59:04.315Z,49.10
2018-02-23T23:01:32.544Z,49.30
2018-02-23T23:04:01.539Z,49.30
2018-02-23T23:06:29.792Z,49.30
2018-02-23T23:08:58.023Z,49.40
2018-02-23T23:11:26.273Z,49.40
2018-02-23T23:13:55.275Z,49.70
2018-02-23T23:16:23.519Z,49.70
2018-02-23T23:18:51.751Z,50.40
2018-02-23T23:21:20.116Z,50.30
2018-02-23T23:23:49.115Z,50.60
2018-02-23T23:26:17.335Z,50.50
2018-02-23T23:28:45.690Z,50.90
2018-02-23T23:31:13.957Z,51.20
2018-02-23T23:33:42.294Z,51.40
2018-02-23T23:36:11.322Z,52.00
2018-02-23T23:38:39.547Z,51.70
2018-02-23T23:41:07.812Z,51.60
2018-02-23T23:43:36.050Z,51.60
2018-02-23T23:46:04.323Z,51.90
2018-02-23T23:48:32.585Z,51.80
2018-02-23T23:51:01.592Z,52.20
2018-02-23T23:53:29.963Z,52.10
2018-02-23T23:55:58.189Z,52.10
2018-02-23T23:58:26.500Z,52.40
